TAF and METAR

Could not understand the following METAR

YMEK 250000Z AUTO 06011KT 9999 // NCD 14/09 Q1023
No TAF available for Meekatharra Airport